Time;durP1;ratioP1;P1;durP2;ratioP2;P2;SDS_P1;SDS_P2;PMS_P1;PMS_P2;Temp;Humidity;BMP_temperature;BMP_pressure;BME280_temperature;BME280_humidity;BME280_pressure;Samples;Min_cycle;Max_cycle;Signal;HPM_P1;HPM_P2
2022/09/08 00:01:21;;;;;;;8.45;5.18;;;17.10;99.90;;;;;;6286377;22;20050;-90
2022/09/08 00:03:47;;;;;;;8.55;4.47;;;17.10;99.90;;;;;;6286494;22;20057;-88
2022/09/08 00:06:16;;;;;;;8.95;5.40;;;17.10;99.90;;;;;;6261066;22;20011;-88
2022/09/08 00:08:46;;;;;;;9.20;4.93;;;17.10;99.90;;;;;;6282570;22;20090;-92
2022/09/08 00:11:16;;;;;;;9.43;5.47;;;17.20;99.90;;;;;;6185807;23;20471;-90
2022/09/08 00:13:43;;;;;;;8.55;5.80;;;17.20;99.90;;;;;;6210850;23;20016;-90
2022/09/08 00:16:10;;;;;;;;;;;17.10;99.90;;;;;;6186165;23;20502;-89
2022/09/08 00:18:38;;;;;;;10.85;6.15;;;17.20;99.90;;;;;;6186195;23;19951;-91
2022/09/08 00:21:04;;;;;;;10.52;6.10;;;17.10;99.90;;;;;;6185943;23;20446;-91
2022/09/08 00:23:30;;;;;;;;;;;17.10;99.90;;;;;;6161729;23;20013;-91
2022/09/08 00:25:56;;;;;;;11.95;7.03;;;17.10;99.90;;;;;;6185648;23;19916;-89
2022/09/08 00:28:21;;;;;;;9.98;6.55;;;17.10;99.90;;;;;;6185620;23;20446;-92
2022/09/08 00:30:49;;;;;;;12.32;6.97;;;17.20;99.90;;;;;;6185575;23;20016;-90
2022/09/08 00:33:15;;;;;;;12.30;7.50;;;17.20;99.90;;;;;;6160921;23;20046;-93
2022/09/08 00:35:43;;;;;;;10.60;6.97;;;17.20;99.90;;;;;;6185935;23;20021;-92
2022/09/08 00:38:08;;;;;;;11.68;7.07;;;17.20;99.90;;;;;;6186086;23;20017;-92
2022/09/08 00:40:47;;;;;;;13.88;8.40;;;17.20;99.90;;;;;;6185740;23;20023;-90
2022/09/08 00:43:41;;;;;;;13.57;7.90;;;17.20;99.90;;;;;;6184943;23;20017;-90
2022/09/08 00:46:12;;;;;;;12.23;7.80;;;17.20;99.90;;;;;;6185458;23;20468;-91
2022/09/08 00:49:17;;;;;;;14.25;9.05;;;17.20;99.90;;;;;;6185464;23;20442;-91
2022/09/08 00:51:47;;;;;;;13.90;8.07;;;17.20;99.90;;;;;;6185549;23;20020;-89
2022/09/08 00:54:15;;;;;;;14.48;8.43;;;17.20;99.90;;;;;;6185187;23;20017;-89
2022/09/08 00:56:43;;;;;;;13.63;8.80;;;17.20;99.90;;;;;;6210498;23;20319;-93
2022/09/08 00:59:09;;;;;;;13.70;9.15;;;17.20;99.90;;;;;;6185198;23;20017;-93
2022/09/08 01:01:35;;;;;;;16.30;9.93;;;17.20;99.90;;;;;;6185398;23;20016;-89
2022/09/08 01:04:03;;;;;;;15.23;9.38;;;17.20;99.90;;;;;;6185081;23;20043;-90
2022/09/08 01:12:48;;;;;;;14.73;10.00;;;17.10;99.90;;;;;;6209952;22;20095;-88
2022/09/08 01:15:23;;;;;;;17.48;10.35;;;17.10;99.90;;;;;;6185045;23;20074;-88
2022/09/08 01:17:54;;;;;;;15.30;9.77;;;17.00;99.90;;;;;;6184988;23;20019;-88
2022/09/08 01:20:27;;;;;;;16.15;10.52;;;17.10;99.90;;;;;;6210243;23;20091;-88
2022/09/08 01:22:53;;;;;;;18.67;12.18;;;17.00;99.90;;;;;;6185006;23;20016;-89
2022/09/08 01:25:34;;;;;;;16.27;11.00;;;17.00;99.90;;;;;;6209831;23;20020;-88
2022/09/08 01:28:09;;;;;;;17.92;10.70;;;17.00;99.90;;;;;;6209685;23;20074;-88
2022/09/08 01:30:35;;;;;;;17.65;10.00;;;17.00;99.90;;;;;;6184747;23;20028;-88
2022/09/08 01:33:07;;;;;;;17.30;11.05;;;17.00;99.90;;;;;;6159865;23;20023;-90
2022/09/08 01:35:38;;;;;;;16.73;10.35;;;17.00;99.90;;;;;;6209662;23;20013;-88
2022/09/08 01:38:05;;;;;;;16.83;11.10;;;17.00;99.90;;;;;;6184716;23;20062;-88
2022/09/08 01:40:31;;;;;;;17.45;10.45;;;17.00;99.90;;;;;;6184066;23;20008;-88
2022/09/08 01:42:57;;;;;;;18.13;12.25;;;17.00;99.90;;;;;;6184799;23;20028;-87
2022/09/08 01:45:23;;;;;;;18.88;10.73;;;16.90;99.90;;;;;;6209645;23;20020;-88
2022/09/08 01:47:50;;;;;;;17.02;10.93;;;16.90;99.90;;;;;;6184732;23;20057;-89
2022/09/08 01:50:16;;;;;;;17.15;10.90;;;16.90;99.90;;;;;;6209438;23;20027;-88
2022/09/08 01:52:42;;;;;;;17.88;10.35;;;16.90;99.90;;;;;;6184992;23;20020;-88
2022/09/08 01:55:08;;;;;;;18.73;11.85;;;16.90;99.90;;;;;;6209688;23;20042;-89
2022/09/08 01:57:34;;;;;;;18.50;11.45;;;16.90;99.90;;;;;;6184793;23;20342;-89
2022/09/08 02:00:00;;;;;;;19.80;12.00;;;16.90;99.90;;;;;;6210659;23;20020;-88
2022/09/08 02:02:26;;;;;;;19.85;11.75;;;16.90;99.90;;;;;;6184977;23;20047;-89
2022/09/08 02:04:52;;;;;;;20.25;12.55;;;16.90;99.90;;;;;;6214044;23;20027;-90
2022/09/08 02:07:18;;;;;;;18.83;10.93;;;16.90;99.90;;;;;;6210864;23;20013;-89
2022/09/08 02:09:45;;;;;;;18.33;10.65;;;16.90;99.90;;;;;;6209643;23;20028;-88
2022/09/08 02:12:11;;;;;;;18.10;11.98;;;17.00;99.90;;;;;;6209790;23;20459;-88
2022/09/08 02:14:36;;;;;;;19.42;11.77;;;17.00;99.90;;;;;;6234471;22;20020;-89
2022/09/08 02:17:02;;;;;;;20.52;12.18;;;16.90;99.90;;;;;;6184441;23;20071;-88
2022/09/08 02:19:28;;;;;;;19.85;11.07;;;16.90;99.90;;;;;;6184495;23;20025;-88
2022/09/08 02:21:54;;;;;;;20.48;12.70;;;16.90;99.90;;;;;;6209750;22;20021;-87
2022/09/08 02:24:20;;;;;;;20.58;12.77;;;16.90;99.90;;;;;;6210231;23;20021;-91
2022/09/08 02:26:45;;;;;;;21.33;12.38;;;16.90;99.90;;;;;;6210357;23;20024;-89
2022/09/08 02:29:11;;;;;;;19.60;12.05;;;16.90;99.90;;;;;;6209902;23;20096;-90
2022/09/08 02:31:38;;;;;;;20.38;12.85;;;16.90;99.90;;;;;;6210217;23;20024;-90
2022/09/08 02:34:04;;;;;;;21.05;12.95;;;16.90;99.90;;;;;;6209839;23;20016;-91
2022/09/08 02:36:30;;;;;;;;;;;16.90;99.90;;;;;;6235755;22;20013;-91
2022/09/08 02:38:56;;;;;;;19.35;11.88;;;16.90;99.90;;;;;;6184959;23;19965;-89
2022/09/08 02:41:24;;;;;;;20.35;12.65;;;16.90;99.90;;;;;;6209866;23;20020;-88
2022/09/08 02:43:50;;;;;;;21.17;12.65;;;16.90;99.90;;;;;;6187578;23;20050;-88
2022/09/08 02:46:16;;;;;;;21.90;12.93;;;16.90;99.90;;;;;;6220627;23;20060;-88
2022/09/08 02:48:42;;;;;;;23.30;13.25;;;16.90;99.90;;;;;;6187385;23;20016;-88
2022/09/08 02:51:10;;;;;;;20.58;12.88;;;16.90;99.90;;;;;;6210702;23;20425;-89
2022/09/08 02:53:37;;;;;;;20.90;13.30;;;16.90;99.90;;;;;;6210866;23;20453;-90
2022/09/08 02:56:04;;;;;;;23.52;13.32;;;16.90;99.90;;;;;;6186578;23;20028;-89
2022/09/08 02:58:30;;;;;;;21.65;12.85;;;16.90;99.90;;;;;;6186241;23;20096;-90
2022/09/08 03:00:56;;;;;;;24.08;14.48;;;16.90;99.90;;;;;;6186499;23;20055;-90
2022/09/08 03:03:23;;;;;;;24.15;14.02;;;16.90;99.90;;;;;;6186161;23;20032;-88
2022/09/08 03:05:52;;;;;;;24.38;14.77;;;16.90;99.90;;;;;;6185908;23;20082;-88
2022/09/08 03:08:19;;;;;;;24.58;14.07;;;17.00;99.90;;;;;;6222068;22;20023;-89
2022/09/08 03:10:44;;;;;;;22.67;12.88;;;17.00;99.90;;;;;;6313252;22;20023;-89
2022/09/08 03:13:11;;;;;;;24.58;14.95;;;17.00;99.90;;;;;;6286952;22;20080;-89
2022/09/08 03:15:37;;;;;;;25.05;13.77;;;17.00;99.90;;;;;;6312679;22;20022;-89
2022/09/08 03:18:04;;;;;;;23.23;14.68;;;17.00;99.90;;;;;;6287259;22;20019;-89
2022/09/08 03:20:34;;;;;;;25.75;15.35;;;17.10;99.90;;;;;;6287089;22;20013;-88
2022/09/08 03:23:00;;;;;;;25.02;14.27;;;17.10;99.90;;;;;;6295616;22;20090;-87
2022/09/08 03:25:27;;;;;;;28.60;16.35;;;17.10;99.90;;;;;;6303423;22;20014;-89
2022/09/08 03:27:53;;;;;;;24.73;14.02;;;17.10;99.90;;;;;;6292259;22;20015;-90
2022/09/08 03:30:19;;;;;;;25.90;15.63;;;17.10;99.90;;;;;;6313111;22;20037;-87
2022/09/08 03:32:46;;;;;;;24.70;15.43;;;17.10;99.90;;;;;;6286966;22;20440;-89
2022/09/08 03:35:16;;;;;;;25.83;15.00;;;17.10;99.90;;;;;;6312591;22;20089;-90
2022/09/08 03:37:42;;;;;;;25.73;15.20;;;17.20;99.90;;;;;;6286705;22;20043;-89
2022/09/08 03:40:11;;;;;;;30.10;16.33;;;17.10;99.90;;;;;;6286557;22;20019;-88
2022/09/08 03:42:39;;;;;;;26.48;15.88;;;17.10;99.90;;;;;;6286486;22;20015;-88
2022/09/08 03:45:08;;;;;;;25.90;15.10;;;17.10;99.90;;;;;;6286481;22;20030;-89
2022/09/08 03:47:34;;;;;;;25.23;15.70;;;17.10;99.90;;;;;;6286506;22;20021;-89
2022/09/08 03:50:00;;;;;;;26.35;15.93;;;17.10;99.90;;;;;;6261402;22;20015;-89
2022/09/08 03:52:26;;;;;;;28.00;15.50;;;17.10;99.90;;;;;;6286521;22;20467;-89
2022/09/08 03:54:53;;;;;;;26.83;15.52;;;17.10;99.90;;;;;;6286427;22;20050;-89
2022/09/08 03:57:26;;;;;;;27.27;16.23;;;17.10;99.90;;;;;;6261414;22;20443;-88
2022/09/08 03:59:55;;;;;;;29.15;15.10;;;17.20;99.90;;;;;;6287245;22;20025;-88
2022/09/08 04:02:21;;;;;;;29.45;17.15;;;17.10;99.90;;;;;;6312085;22;20015;-89
2022/09/08 04:04:51;;;;;;;28.77;15.95;;;17.10;99.90;;;;;;6312809;22;20022;-94
2022/09/08 04:07:19;;;;;;;25.80;16.10;;;17.10;99.90;;;;;;6287091;22;20014;-92
2022/09/08 04:09:44;;;;;;;27.67;16.52;;;17.10;99.90;;;;;;6215850;22;20021;-89
2022/09/08 04:12:11;;;;;;;28.63;17.20;;;17.20;99.90;;;;;;6185864;23;20017;-89
2022/09/08 04:14:38;;;;;;;28.67;16.40;;;17.20;99.90;;;;;;6185042;23;20023;-92
2022/09/08 04:17:05;;;;;;;27.75;15.57;;;17.20;99.90;;;;;;6161366;23;20016;-88
2022/09/08 04:19:31;;;;;;;26.55;15.48;;;17.20;99.90;;;;;;6185968;23;20028;-88
2022/09/08 04:21:56;;;;;;;28.08;16.80;;;17.20;99.90;;;;;;6210833;23;20013;-92
2022/09/08 04:24:22;;;;;;;29.08;16.15;;;17.20;99.90;;;;;;6210578;23;20021;-90
2022/09/08 04:26:48;;;;;;;30.88;16.75;;;17.20;99.90;;;;;;6185455;23;20016;-87
2022/09/08 04:29:15;;;;;;;26.88;15.70;;;17.20;99.90;;;;;;6184976;23;20076;-89
2022/09/08 04:31:42;;;;;;;27.00;15.32;;;17.20;99.90;;;;;;6210194;23;20021;-88
2022/09/08 04:34:08;;;;;;;29.75;18.00;;;17.20;99.90;;;;;;6210128;23;20068;-87
2022/09/08 04:36:34;;;;;;;30.63;17.10;;;17.20;99.90;;;;;;6209990;22;20016;-88
2022/09/08 04:39:01;;;;;;;30.90;17.73;;;17.20;99.90;;;;;;6210329;23;20016;-88
2022/09/08 04:41:29;;;;;;;28.52;16.73;;;17.20;99.90;;;;;;6210422;23;20042;-90
2022/09/08 04:43:56;;;;;;;31.23;16.38;;;17.20;99.90;;;;;;6210592;23;20016;-89
2022/09/08 04:46:22;;;;;;;29.85;17.48;;;17.20;99.90;;;;;;6185653;23;20009;-91
2022/09/08 04:48:48;;;;;;;30.50;17.98;;;17.20;99.90;;;;;;6210184;23;20027;-88
2022/09/08 04:51:39;;;;;;;28.10;16.25;;;17.20;99.90;;;;;;6212524;23;20023;-92
2022/09/08 04:54:06;;;;;;;29.95;16.05;;;17.20;99.90;;;;;;6210245;23;20103;-91
2022/09/08 04:56:38;;;;;;;31.20;17.38;;;17.20;99.90;;;;;;6210709;23;20024;-91
2022/09/08 04:59:09;;;;;;;29.10;16.23;;;17.30;99.90;;;;;;6210209;23;20099;-91
2022/09/08 05:02:00;;;;;;;29.25;17.88;;;17.30;99.90;;;;;;6210590;23;20522;-91
2022/09/08 05:04:26;;;;;;;28.17;16.60;;;17.20;99.90;;;;;;6141379;23;20024;-91
2022/09/08 05:07:16;;;;;;;32.15;17.80;;;17.20;99.90;;;;;;6210763;23;20430;-92
2022/09/08 05:09:44;;;;;;;32.65;18.77;;;17.20;99.90;;;;;;6205153;23;20523;-91
2022/09/08 05:12:10;;;;;;;32.63;18.42;;;17.20;99.90;;;;;;6210620;23;20063;-92
2022/09/08 05:14:36;;;;;;;32.20;18.58;;;17.20;99.90;;;;;;6208410;23;20095;-92
2022/09/08 05:17:02;;;;;;;35.05;19.17;;;17.20;99.90;;;;;;6209218;23;20024;-92
2022/09/08 05:19:28;;;;;;;31.23;17.80;;;17.20;99.90;;;;;;6184639;23;20016;-91
2022/09/08 05:21:53;;;;;;;30.33;17.00;;;17.20;99.90;;;;;;6183189;23;20054;-92
2022/09/08 05:25:00;;;;;;;31.75;18.42;;;17.20;99.90;;;;;;6209682;23;20027;-91
2022/09/08 05:27:48;;;;;;;30.63;17.42;;;17.20;99.90;;;;;;6185403;23;20025;-88
2022/09/08 05:30:15;;;;;;;27.65;16.40;;;17.30;99.90;;;;;;6210708;23;20044;-89
2022/09/08 05:32:41;;;;;;;30.60;17.33;;;17.30;99.90;;;;;;6210296;23;20021;-89
2022/09/08 05:35:07;;;;;;;29.88;17.83;;;17.30;99.90;;;;;;6210280;23;21059;-90
2022/09/08 05:37:33;;;;;;;;;;;17.30;99.90;;;;;;6186278;23;20095;-89
2022/09/08 05:39:59;;;;;;;30.73;17.00;;;17.30;99.90;;;;;;6185791;23;19920;-89
2022/09/08 05:42:25;;;;;;;30.70;17.08;;;17.40;99.90;;;;;;6210457;23;20515;-90
2022/09/08 05:44:50;;;;;;;32.50;17.23;;;17.40;99.90;;;;;;6210587;23;20050;-89
2022/09/08 05:47:16;;;;;;;28.65;16.90;;;17.40;99.90;;;;;;6161020;23;20017;-90
2022/09/08 05:49:42;;;;;;;31.85;17.55;;;17.40;99.90;;;;;;6160914;23;20021;-90
2022/09/08 05:52:23;;;;;;;28.30;16.80;;;17.50;99.90;;;;;;6160921;23;20488;-89
2022/09/08 05:54:51;;;;;;;28.60;16.25;;;17.50;99.90;;;;;;6209910;23;20043;-88
2022/09/08 05:57:19;;;;;;;31.10;16.75;;;17.50;99.90;;;;;;6161404;22;20386;-89
2022/09/08 05:59:45;;;;;;;29.77;17.65;;;17.50;99.90;;;;;;6160376;23;20024;-91
2022/09/08 06:02:11;;;;;;;31.10;17.85;;;17.60;99.90;;;;;;6160360;23;20048;-91
2022/09/08 06:04:37;;;;;;;29.05;17.08;;;17.50;99.90;;;;;;6185146;23;20417;-91
2022/09/08 06:07:02;;;;;;;28.77;17.15;;;17.60;99.90;;;;;;6160536;23;20065;-91
2022/09/08 06:09:28;;;;;;;28.75;17.00;;;17.60;99.90;;;;;;6209534;23;20146;-91
2022/09/08 06:11:57;;;;;;;27.95;16.42;;;17.60;99.90;;;;;;6210112;23;20028;-90
2022/09/08 06:14:33;;;;;;;28.23;16.88;;;17.60;99.90;;;;;;6161134;23;20016;-91
2022/09/08 06:16:59;;;;;;;31.05;17.15;;;17.60;99.90;;;;;;6136722;23;20090;-89
2022/09/08 06:19:25;;;;;;;27.67;18.13;;;17.60;99.90;;;;;;6184971;23;20495;-91
2022/09/08 06:22:07;;;;;;;29.88;17.30;;;17.60;99.90;;;;;;6210954;23;20048;-90
2022/09/08 06:24:33;;;;;;;30.13;18.30;;;17.60;99.90;;;;;;6185132;23;20013;-89
2022/09/08 06:30:47;;;;;;;28.67;17.42;;;17.70;99.90;;;;;;6205520;23;20025;-90
2022/09/08 06:33:29;;;;;;;30.30;17.40;;;17.70;99.90;;;;;;6185392;23;20024;-90
2022/09/08 06:36:10;;;;;;;30.63;17.40;;;17.70;99.90;;;;;;6185247;23;20345;-89
2022/09/08 06:39:00;;;;;;;26.77;16.38;;;17.70;99.90;;;;;;6186715;23;20070;-89
2022/09/08 06:48:12;;;;;;;28.15;16.50;;;17.70;99.90;;;;;;6236977;22;20026;-90
2022/09/08 06:50:48;;;;;;;28.30;15.65;;;17.70;99.90;;;;;;6287913;22;20456;-89
2022/09/08 06:53:21;;;;;;;32.95;16.95;;;17.70;99.90;;;;;;6287996;22;20033;-89
2022/09/08 06:56:14;;;;;;;30.08;16.40;;;17.80;99.90;;;;;;6287730;22;20057;-89
2022/09/08 06:58:41;;;;;;;30.40;16.98;;;17.80;99.90;;;;;;6287908;22;20019;-90
2022/09/08 07:01:24;;;;;;;29.65;17.85;;;17.80;99.90;;;;;;6287942;22;20085;-90
2022/09/08 07:03:58;;;;;;;27.92;17.67;;;17.80;99.90;;;;;;6287620;22;20019;-90
2022/09/08 07:06:27;;;;;;;29.92;17.13;;;17.80;99.90;;;;;;6287579;22;20060;-89
2022/09/08 07:09:01;;;;;;;28.10;16.80;;;17.70;99.90;;;;;;6262568;22;20015;-91
2022/09/08 07:11:51;;;;;;;30.08;17.52;;;17.70;99.90;;;;;;6288247;22;20505;-90
2022/09/08 07:14:51;;;;;;;29.33;16.67;;;17.70;99.90;;;;;;6287352;22;20018;-91
2022/09/08 07:17:29;;;;;;;28.55;16.65;;;17.70;99.90;;;;;;6287950;22;20015;-91
2022/09/08 07:19:56;;;;;;;27.65;16.50;;;17.70;99.90;;;;;;6287803;22;20018;-92
2022/09/08 07:22:47;;;;;;;29.67;17.20;;;17.70;99.90;;;;;;6287617;22;20073;-93
2022/09/08 07:25:34;;;;;;;30.50;17.27;;;17.70;99.90;;;;;;6313844;22;20025;-91
2022/09/08 07:28:11;;;;;;;28.77;17.80;;;17.70;99.90;;;;;;6287753;22;20015;-93
2022/09/08 07:30:39;;;;;;;29.90;16.83;;;17.70;99.90;;;;;;6287688;22;20018;-92
2022/09/08 07:33:23;;;;;;;28.00;16.50;;;17.70;99.90;;;;;;6287993;22;20056;-93
2022/09/08 07:35:58;;;;;;;29.33;16.45;;;17.70;99.90;;;;;;6287703;22;20066;-93
2022/09/08 07:38:36;;;;;;;27.17;16.25;;;17.70;99.90;;;;;;6287098;22;20026;-95
2022/09/08 07:41:05;;;;;;;27.38;15.93;;;17.70;99.90;;;;;;6287643;22;20483;-95
2022/09/08 07:43:31;;;;;;;26.02;16.08;;;17.70;99.90;;;;;;6287709;22;20015;-95
2022/09/08 07:46:36;;;;;;;26.88;16.02;;;17.70;99.90;;;;;;6262186;22;20097;-95
2022/09/08 07:49:38;;;;;;;27.80;16.40;;;17.70;99.90;;;;;;6225202;22;20023;-95
2022/09/08 07:52:18;;;;;;;27.00;16.10;;;17.70;99.90;;;;;;6211415;23;20534;-96
2022/09/08 07:55:10;;;;;;;27.90;17.10;;;17.70;99.90;;;;;;6212464;23;20028;-96
2022/09/08 07:58:03;;;;;;;25.88;15.65;;;17.70;99.90;;;;;;6200225;23;20072;-91
2022/09/08 08:00:48;;;;;;;26.95;16.83;;;17.70;99.90;;;;;;6220647;23;20052;-96
2022/09/08 08:03:26;;;;;;;26.55;15.65;;;17.70;99.90;;;;;;6211219;23;20017;-92
2022/09/08 08:06:02;;;;;;;25.77;15.65;;;17.70;99.90;;;;;;6211255;23;20017;-95
2022/09/08 08:08:31;;;;;;;26.87;15.13;;;17.60;99.90;;;;;;6211077;23;20012;-91
2022/09/08 08:11:06;;;;;;;26.00;16.13;;;17.70;99.90;;;;;;6185938;23;20017;-95
2022/09/08 08:14:01;;;;;;;25.58;14.88;;;17.70;99.90;;;;;;6186333;23;20101;-96
2022/09/08 08:16:47;;;;;;;24.92;13.90;;;17.70;99.90;;;;;;6216046;23;20024;-93
2022/09/08 08:19:41;;;;;;;26.48;14.63;;;17.70;99.90;;;;;;6195848;23;20017;-94
2022/09/08 08:22:33;;;;;;;25.48;14.80;;;17.70;99.90;;;;;;6186246;23;20051;-93
2022/09/08 08:25:13;;;;;;;24.05;13.63;;;17.70;99.90;;;;;;6186159;23;20020;-93
2022/09/08 08:27:42;;;;;;;23.77;13.68;;;17.70;99.90;;;;;;6186311;23;20035;-96
2022/09/08 08:30:19;;;;;;;21.88;13.27;;;17.60;99.90;;;;;;6211317;23;20099;-96
2022/09/08 08:32:54;;;;;;;23.48;12.95;;;17.60;99.90;;;;;;6186459;23;20021;-93
2022/09/08 08:35:42;;;;;;;21.75;13.43;;;17.60;99.90;;;;;;6185991;23;20016;-94
2022/09/08 08:38:17;;;;;;;20.95;12.23;;;17.70;99.90;;;;;;6185934;23;20071;-92
2022/09/08 08:41:00;;;;;;;21.83;12.25;;;17.60;99.90;;;;;;6185942;23;20056;-92
2022/09/08 08:43:35;;;;;;;20.35;11.60;;;17.60;99.90;;;;;;6161884;23;20104;-94
2022/09/08 08:46:20;;;;;;;18.73;11.60;;;17.70;99.90;;;;;;6186110;23;20092;-94
2022/09/08 08:49:13;;;;;;;18.08;10.95;;;17.70;99.90;;;;;;6185685;23;20038;-96
2022/09/08 08:51:45;;;;;;;18.67;11.48;;;17.70;99.90;;;;;;6212612;23;20021;-95
2022/09/08 08:54:32;;;;;;;19.10;11.52;;;17.70;99.90;;;;;;6210967;23;20021;-95
2022/09/08 08:57:26;;;;;;;19.17;11.55;;;17.70;99.90;;;;;;6185982;23;20044;-96
2022/09/08 08:59:52;;;;;;;20.15;11.25;;;17.80;99.90;;;;;;6184774;23;20041;-95
2022/09/08 09:02:42;;;;;;;19.60;11.70;;;17.80;99.90;;;;;;6211268;23;20056;-94
2022/09/08 09:05:31;;;;;;;18.27;11.13;;;17.90;99.90;;;;;;6210923;23;20016;-93
2022/09/08 09:08:36;;;;;;;17.10;10.07;;;17.90;99.90;;;;;;6185740;23;20035;-95
2022/09/08 09:11:40;;;;;;;16.73;11.15;;;17.90;99.90;;;;;;6185909;23;20028;-95
2022/09/08 09:14:06;;;;;;;17.27;10.73;;;17.90;99.90;;;;;;6210631;23;20096;-92
2022/09/08 09:16:57;;;;;;;18.05;11.43;;;18.00;99.90;;;;;;6210928;23;20044;-94
2022/09/08 09:19:31;;;;;;;19.25;10.05;;;17.90;99.90;;;;;;6210873;23;20013;-94
2022/09/08 09:22:06;;;;;;;20.45;11.65;;;18.00;99.90;;;;;;6210899;23;20396;-94
2022/09/08 09:25:00;;;;;;;19.67;11.25;;;18.00;99.90;;;;;;6185723;23;20017;-93
2022/09/08 09:28:00;;;;;;;17.00;11.25;;;18.00;99.90;;;;;;6212090;23;20501;-92
2022/09/08 09:30:42;;;;;;;17.45;10.98;;;17.90;99.90;;;;;;6161238;23;20028;-94
2022/09/08 09:33:14;;;;;;;18.38;11.50;;;17.90;99.90;;;;;;6185819;23;20025;-94
2022/09/08 09:36:11;;;;;;;17.67;10.68;;;17.90;99.90;;;;;;6185515;23;20251;-93
2022/09/08 09:39:17;;;;;;;18.87;11.57;;;17.90;99.90;;;;;;6186036;23;20517;-96
2022/09/08 09:42:07;;;;;;;17.02;10.55;;;17.90;99.90;;;;;;6210688;23;20073;-91
2022/09/08 09:44:58;;;;;;;17.08;10.52;;;17.90;99.90;;;;;;6185703;23;20013;-95
2022/09/08 09:47:47;;;;;;;17.85;11.13;;;17.90;99.90;;;;;;6185991;23;20024;-95
2022/09/08 09:50:38;;;;;;;18.02;10.73;;;18.00;99.90;;;;;;6185810;22;20484;-93
2022/09/08 09:53:26;;;;;;;17.60;11.13;;;18.00;99.90;;;;;;6210714;23;20471;-96
2022/09/08 09:56:06;;;;;;;;;;;18.00;99.90;;;;;;6186152;23;20103;-95
2022/09/08 09:59:04;;;;;;;15.82;9.45;;;18.00;99.90;;;;;;6185767;23;19951;-93
2022/09/08 10:01:51;;;;;;;18.35;10.93;;;18.10;99.90;;;;;;6185082;23;20012;-94
2022/09/08 10:04:55;;;;;;;16.92;9.15;;;18.10;99.90;;;;;;6185513;23;20344;-95
2022/09/08 10:07:30;;;;;;;15.35;8.80;;;18.10;99.90;;;;;;6091899;23;20017;-92
2022/09/08 10:10:33;;;;;;;15.63;8.35;;;18.10;99.90;;;;;;6185973;23;20017;-95
2022/09/08 10:13:37;;;;;;;21.80;9.00;;;18.10;99.90;;;;;;6185085;23;20020;-93
2022/09/08 10:16:31;;;;;;;16.25;8.20;;;18.10;99.90;;;;;;6185530;23;20020;-96
2022/09/08 10:19:12;;;;;;;12.35;7.00;;;18.10;99.90;;;;;;6199278;23;20027;-95
2022/09/08 10:21:53;;;;;;;11.75;6.95;;;18.10;99.90;;;;;;6185539;23;20322;-88
2022/09/08 10:24:53;;;;;;;11.73;6.57;;;18.00;99.90;;;;;;6185433;23;20016;-93
2022/09/08 10:27:57;;;;;;;11.57;6.32;;;18.00;99.90;;;;;;6185248;23;20142;-92
2022/09/08 10:31:12;;;;;;;11.55;6.32;;;18.00;99.90;;;;;;6185163;23;20020;-94
2022/09/08 10:34:15;;;;;;;11.63;6.53;;;18.00;99.90;;;;;;6185368;23;20079;-94
2022/09/08 10:36:44;;;;;;;10.98;6.28;;;17.90;99.90;;;;;;6185172;23;20020;-93
2022/09/08 10:39:29;;;;;;;9.52;6.13;;;18.00;99.90;;;;;;6185337;23;20077;-93
2022/09/08 10:42:16;;;;;;;9.90;5.78;;;18.00;99.90;;;;;;6185468;23;20013;-92
2022/09/08 10:45:10;;;;;;;10.00;5.75;;;17.90;99.90;;;;;;6185282;23;20095;-92
2022/09/08 10:47:47;;;;;;;10.93;6.18;;;18.00;99.90;;;;;;6185356;23;20450;-92
2022/09/08 10:50:25;;;;;;;9.90;5.47;;;17.90;99.90;;;;;;6185113;23;20063;-95
2022/09/08 10:53:02;;;;;;;10.02;6.05;;;17.90;99.90;;;;;;6185125;22;20410;-93
2022/09/08 10:55:41;;;;;;;9.85;5.63;;;17.90;99.90;;;;;;6185099;23;20315;-95
2022/09/08 10:58:34;;;;;;;10.98;5.43;;;17.90;99.90;;;;;;6185362;23;20061;-93
2022/09/08 11:01:19;;;;;;;11.05;6.20;;;17.90;99.90;;;;;;6184995;23;20021;-93
2022/09/08 11:04:03;;;;;;;9.02;5.60;;;17.90;99.90;;;;;;6184968;23;20049;-92
2022/09/08 11:06:35;;;;;;;8.98;4.50;;;17.90;99.90;;;;;;6184702;23;20450;-90
2022/09/08 11:09:22;;;;;;;6.45;3.45;;;18.00;99.90;;;;;;6184678;23;20736;-92
2022/09/08 11:12:14;;;;;;;4.78;2.90;;;18.00;99.90;;;;;;6210528;23;20047;-93
2022/09/08 11:15:17;;;;;;;4.65;2.22;;;17.90;99.90;;;;;;6209578;23;20016;-95
2022/09/08 11:17:49;;;;;;;5.25;3.00;;;17.90;99.90;;;;;;6186563;23;20357;-92
2022/09/08 11:20:46;;;;;;;5.65;2.70;;;17.90;99.90;;;;;;6186801;23;20106;-96
2022/09/08 11:23:42;;;;;;;4.10;2.40;;;17.90;99.90;;;;;;6186312;23;20042;-95
2022/09/08 11:26:26;;;;;;;6.15;2.88;;;17.90;99.90;;;;;;6186664;23;20078;-96
2022/09/08 11:28:57;;;;;;;5.32;2.60;;;17.90;99.90;;;;;;6186304;23;20066;-96
2022/09/08 11:31:42;;;;;;;4.93;2.70;;;17.80;99.90;;;;;;6212232;23;20414;-93
2022/09/08 11:34:27;;;;;;;4.53;2.20;;;17.90;99.90;;;;;;6211417;23;20020;-94
2022/09/08 11:37:30;;;;;;;4.00;2.15;;;17.90;99.90;;;;;;6186147;23;20013;-95
2022/09/08 11:40:23;;;;;;;4.32;2.40;;;17.90;99.90;;;;;;6184759;23;20017;-89
2022/09/08 11:43:18;;;;;;;3.67;2.00;;;17.90;99.90;;;;;;6211293;23;20023;-89
2022/09/08 11:46:07;;;;;;;3.05;1.35;;;17.90;99.90;;;;;;6180226;23;20021;-92
2022/09/08 11:48:51;;;;;;;2.30;1.10;;;17.90;99.90;;;;;;6199792;22;20092;-90
2022/09/08 11:51:38;;;;;;;2.05;1.10;;;17.80;99.90;;;;;;6287265;22;20100;-92
2022/09/08 11:54:36;;;;;;;2.08;0.80;;;17.80;99.90;;;;;;6286994;22;20025;-91
2022/09/08 11:57:15;;;;;;;;;;;17.70;99.90;;;;;;6255322;22;20011;-95
2022/09/08 12:00:04;;;;;;;1.25;0.63;;;17.60;99.90;;;;;;6287143;22;19919;-88
2022/09/08 12:03:24;;;;;;;1.48;0.70;;;17.60;99.90;;;;;;6339994;22;20015;-85
2022/09/08 12:09:40;;;;;;;1.40;0.50;;;17.50;99.90;;;;;;6312449;22;20018;-88
2022/09/08 12:12:34;;;;;;;1.23;0.52;;;17.50;99.90;;;;;;6286760;22;20041;-91
2022/09/08 12:15:14;;;;;;;0.95;0.50;;;17.40;99.90;;;;;;6312576;22;20054;-92
2022/09/08 12:18:01;;;;;;;2.55;0.70;;;17.40;99.90;;;;;;6286746;22;20018;-93
2022/09/08 12:20:35;;;;;;;1.20;0.50;;;17.40;99.90;;;;;;6286867;22;20014;-91
2022/09/08 12:23:17;;;;;;;2.90;0.60;;;17.40;99.90;;;;;;6286576;22;20018;-90
2022/09/08 12:26:11;;;;;;;1.05;0.75;;;17.40;99.90;;;;;;6286673;22;20076;-93
2022/09/08 12:29:01;;;;;;;1.35;0.60;;;17.40;99.90;;;;;;6312565;22;20394;-94
2022/09/08 12:32:05;;;;;;;2.25;0.80;;;17.40;99.90;;;;;;6312470;22;20460;-90
2022/09/08 12:35:05;;;;;;;3.03;0.70;;;17.50;99.90;;;;;;6286787;22;20018;-94
2022/09/08 12:37:51;;;;;;;2.88;0.95;;;17.50;99.90;;;;;;6286548;22;20022;-92
2022/09/08 12:40:22;;;;;;;1.35;0.80;;;17.50;99.90;;;;;;6312553;22;20022;-91
2022/09/08 12:43:07;;;;;;;2.97;0.93;;;17.40;99.90;;;;;;6286744;22;20011;-93
2022/09/08 12:45:51;;;;;;;1.98;0.70;;;17.50;99.90;;;;;;6286777;22;20420;-93
2022/09/08 12:48:23;;;;;;;2.80;0.82;;;17.50;99.90;;;;;;6339942;22;20094;-93
2022/09/08 12:51:00;;;;;;;1.77;0.88;;;17.50;99.90;;;;;;6286536;22;20025;-92
2022/09/08 12:56:36;;;;;;;3.03;0.90;;;17.50;99.90;;;;;;6337935;22;20026;-88
2022/09/08 12:59:07;;;;;;;2.15;0.82;;;17.50;99.90;;;;;;6286587;22;20054;-88
2022/09/08 13:01:55;;;;;;;1.80;0.90;;;17.60;99.90;;;;;;6286206;22;20464;-91
2022/09/08 13:04:42;;;;;;;2.45;1.00;;;17.60;99.90;;;;;;6216083;22;20089;-89
2022/09/08 13:07:36;;;;;;;1.80;0.90;;;17.60;99.90;;;;;;6286288;22;20071;-88
2022/09/08 13:10:28;;;;;;;1.90;1.00;;;17.60;99.90;;;;;;6286048;22;20046;-91
2022/09/08 13:13:09;;;;;;;2.45;1.10;;;17.60;99.90;;;;;;6286470;22;20019;-92
2022/09/08 13:16:16;;;;;;;3.88;1.17;;;17.60;99.90;;;;;;6286470;22;20019;-92
2022/09/08 13:18:54;;;;;;;3.08;1.10;;;17.60;99.90;;;;;;6158629;23;20079;-87
2022/09/08 13:21:38;;;;;;;1.88;0.95;;;17.60;99.90;;;;;;6134146;23;20021;-87
2022/09/08 13:24:54;;;;;;;2.10;1.00;;;17.60;99.90;;;;;;6239684;22;20019;-87
2022/09/08 13:27:23;;;;;;;2.25;1.00;;;17.60;99.90;;;;;;6221678;22;20072;-87
2022/09/08 13:30:37;;;;;;;26.52;24.08;;;17.60;99.90;;;;;;6285517;22;20017;-88
2022/09/08 13:37:24;;;;;;;2.05;0.98;;;17.60;99.90;;;;;;6338777;22;20033;-85
2022/09/08 13:40:12;;;;;;;3.47;1.10;;;17.60;99.90;;;;;;6311261;22;20097;-85
2022/09/08 13:43:11;;;;;;;2.22;1.10;;;17.60;99.90;;;;;;6311349;22;20026;-88
2022/09/08 13:46:07;;;;;;;2.25;1.00;;;17.60;99.90;;;;;;6311161;22;20015;-88
2022/09/08 13:48:51;;;;;;;2.25;1.25;;;17.60;99.90;;;;;;6338962;22;20340;-86
2022/09/08 13:51:58;;;;;;;2.13;1.08;;;17.70;99.90;;;;;;6311956;22;20015;-86